EA5BZ Cruz Roja ES current weather conditions

sailwx.info

Wind from 207 at 8 knots gusting 15

Air temperature 26.7° C
Dewpoint 21.2° C

Last reported at 2019-Sep-21 16:00 UTC.
Time now 2019-Sep-21 17:14 UTC

Location: N 38°16' W 000°41'.
View on Google Maps.

See reports from other nearby stations

  
Tides and Currents Weather Stations Pressure Air Temp Water Temp Dewpoint Dewpoint Depression Visibility Wind Speed Wind Dir Waves Ship Positions
date/time (UTC)wind fromknots sea level pressurealtimeterstation pressurevisibilityair tempwater tempwave heightnotes
2019-Sep-21 16:00 207 8 gusting 15 26.7
2019-Sep-21 15:55 195 7 gusting 13 26.7
2019-Sep-21 15:50 195 9 gusting 16 26.7
2019-Sep-21 15:45 198 6 gusting 14 26.7
2019-Sep-21 15:40 200 6 gusting 9 26.7
2019-Sep-21 15:35 175 6 gusting 11 26.7
2019-Sep-21 15:30 176 6 gusting 10 26.7
2019-Sep-21 15:25 177 6 gusting 11 26.7
2019-Sep-21 15:20 178 6 gusting 12 26.7
2019-Sep-21 15:15 202 11 gusting 15 26.7
2019-Sep-21 15:10 201 11 gusting 16 26.7
2019-Sep-21 15:05 195 11 gusting 14 26.7
2019-Sep-21 15:00 192 10 gusting 14 27.2
2019-Sep-21 14:50 197 8 gusting 13 27.2
2019-Sep-21 14:45 191 7 gusting 13 27.2
2019-Sep-21 14:40 191 6 gusting 11 27.2
2019-Sep-21 14:35 199 6 gusting 11 27.2
2019-Sep-21 14:30 215 8 gusting 13 27.2
2019-Sep-21 14:25 207 7 gusting 12 27.2
2019-Sep-21 14:20 195 7 gusting 10 27.2
2019-Sep-21 14:15 198 6 gusting 10 27.2
2019-Sep-21 14:10 185 6 gusting 10 27.2
2019-Sep-21 14:05 189 6 gusting 10 27.2
2019-Sep-21 14:00 199 7 gusting 12 27.2
2019-Sep-21 13:50 182 9 gusting 15 27.8
2019-Sep-21 13:45 194 8 gusting 15 28.3
2019-Sep-21 13:40 187 6 gusting 11 28.3
2019-Sep-21 13:35 213 8 gusting 13 28.3
2019-Sep-21 13:30 220 8 gusting 15 28.3
2019-Sep-21 13:25 204 7 gusting 11 28.3
2019-Sep-21 13:20 177 7 gusting 12 28.3
2019-Sep-21 13:15 188 6 gusting 14 28.3
2019-Sep-21 13:10 198 6 gusting 10 27.8
2019-Sep-21 13:05 198 8 gusting 13 27.8
2019-Sep-21 13:00 198 7 gusting 12 27.8
2019-Sep-21 12:55 206 6 gusting 12 28.3
2019-Sep-21 12:50 216 10 gusting 13 28.3
2019-Sep-21 12:45 209 9 gusting 13 28.3
2019-Sep-21 12:40 210 8 gusting 14 28.9
2019-Sep-21 12:35 217 7 gusting 12 28.3
2019-Sep-21 12:30 204 6 gusting 12 28.3
2019-Sep-21 12:25 195 6 gusting 11 28.3
2019-Sep-21 12:20 180 8 gusting 14 27.8
2019-Sep-21 12:15 177 7 gusting 13 27.8
2019-Sep-21 12:10 188 5 gusting 11 27.8
2019-Sep-21 12:05 214 10 gusting 14 27.8
2019-Sep-21 12:00 201 9 gusting 14 27.8
2019-Sep-21 11:55 201 9 gusting 13 27.8
2019-Sep-21 11:50 190 6 gusting 12 27.8
2019-Sep-21 11:45 193 9 gusting 16 27.8
2019-Sep-21 11:40 200 7 gusting 13 28.3
2019-Sep-21 11:35 196 6 gusting 10 27.8
2019-Sep-21 11:30 215 7 gusting 13 27.8
2019-Sep-21 11:25 216 6 gusting 12 27.8
2019-Sep-21 11:20 190 8 gusting 12 27.8
2019-Sep-21 11:15 211 9 gusting 14 27.8
2019-Sep-21 11:10 213 5 gusting 11 27.2
2019-Sep-21 11:05 199 7 gusting 13 27.2
2019-Sep-21 11:00 190 6 gusting 13 27.2
2019-Sep-21 10:55 207 7 gusting 13 27.2
2019-Sep-21 10:50 223 10 gusting 13 27.2
2019-Sep-21 10:45 209 8 gusting 14 27.8
2019-Sep-21 10:40 224 8 gusting 12 27.8
2019-Sep-21 10:35 233 7 gusting 11 27.2
2019-Sep-21 10:30 210 8 gusting 13 27.2
2019-Sep-21 10:25 230 8 gusting 13 27.2
2019-Sep-21 10:20 214 10 gusting 14 27.2
2019-Sep-21 10:15 225 6 gusting 14 27.2
2019-Sep-21 10:10 225 6 gusting 10 26.7
2019-Sep-21 10:05 216 8 gusting 12 26.7
2019-Sep-21 10:00 198 8 gusting 14 26.7
2019-Sep-21 09:55 222 7 gusting 11 26.1
2019-Sep-21 09:50 201 7 gusting 12 26.7
2019-Sep-21 09:45 216 6 gusting 11 26.7
2019-Sep-21 09:40 211 8 gusting 11 26.7
2019-Sep-21 09:35 207 6 gusting 11 26.7
2019-Sep-21 09:30 236 7 gusting 11 26.7
2019-Sep-21 09:25 241 9 gusting 13 26.7
2019-Sep-21 09:20 236 8 gusting 13 26.1
2019-Sep-21 09:15 230 7 gusting 13 26.1
2019-Sep-21 09:10 241 9 gusting 13 26.1
2019-Sep-21 09:05 237 10 gusting 14 26.1
2019-Sep-21 09:00 223 9 gusting 13 26.1
2019-Sep-21 08:55 232 9 gusting 13 26.1
2019-Sep-21 08:50 236 9 gusting 13 25.6
2019-Sep-21 08:45 235 9 gusting 13 25.6
2019-Sep-21 08:40 218 8 gusting 12 25.6
2019-Sep-21 08:35 237 8 gusting 11 25.6
2019-Sep-21 08:30 230 7 gusting 11 25.6
2019-Sep-21 08:25 239 6 gusting 12 25.6
2019-Sep-21 08:20 228 9 gusting 13 25.6
2019-Sep-21 08:15 238 8 gusting 12 25.6
2019-Sep-21 08:10 233 6 gusting 11 25.6
2019-Sep-21 08:05 243 6 gusting 10 25.6
2019-Sep-21 08:00 248 5 gusting 8 25.0
2019-Sep-21 07:50 255 5 gusting 7 24.4
2019-Sep-21 07:45 244 2 gusting 6 23.9
2019-Sep-21 07:40 249 5 gusting 6 23.9
2019-Sep-21 07:35 253 6 gusting 7 23.3
2019-Sep-21 07:30 254 4 gusting 6 23.3
2019-Sep-21 07:25 248 5 gusting 7 22.8
2019-Sep-21 07:20 249 5 gusting 7 22.8
2019-Sep-21 07:15 246 5 gusting 7 22.8
2019-Sep-21 07:10 248 6 gusting 6 22.8
2019-Sep-21 07:05 246 5 gusting 6 22.2
2019-Sep-21 07:00 245 4 gusting 6 22.2
2019-Sep-21 06:50 287 3 gusting 6 22.2
2019-Sep-21 06:45 277 6 gusting 9 22.2
2019-Sep-21 06:40 278 6 gusting 8 22.2
2019-Sep-21 06:35 269 5 gusting 8 22.2
2019-Sep-21 06:30 277 6 gusting 9 22.2
2019-Sep-21 06:25 267 6 gusting 8 22.2
2019-Sep-21 06:20 273 6 gusting 7 22.2
2019-Sep-21 06:15 254 4 gusting 7 22.2
2019-Sep-21 06:10 258 4 gusting 6 22.2
2019-Sep-21 06:05 270 5 gusting 6 22.2
2019-Sep-21 06:00 264 5 gusting 6 21.7
2019-Sep-21 05:55 267 4 gusting 6 21.7
2019-Sep-21 05:50 264 3 gusting 6 21.7
2019-Sep-21 05:45 259 2 gusting 5 21.7
2019-Sep-21 05:40 257 1 gusting 3 21.7
2019-Sep-21 05:35 260 2 gusting 5 21.7
2019-Sep-21 05:30 263 2 gusting 5 21.7
2019-Sep-21 05:25 270 2 gusting 5 21.7
2019-Sep-21 05:20 276 5 gusting 6 21.7
2019-Sep-21 05:15 260 4 gusting 6 21.7
2019-Sep-21 05:10 266 4 gusting 6 21.7
2019-Sep-21 05:05 264 3 gusting 6 21.7
2019-Sep-21 05:00 292 2 gusting 3 21.7
2019-Sep-21 04:55 319 3 gusting 5 21.7
2019-Sep-21 04:50 311 3 gusting 5 21.7
2019-Sep-21 04:45 310 3 gusting 4 21.7
2019-Sep-21 04:40 321 3 gusting 5 21.7
2019-Sep-21 04:35 317 4 gusting 6 21.7
2019-Sep-21 04:30 319 4 gusting 6 21.7
2019-Sep-21 04:25 308 3 gusting 5 21.7
2019-Sep-21 04:20 298 3 gusting 6 21.7
2019-Sep-21 04:15 301 3 gusting 4 22.2
2019-Sep-21 04:10 294 3 gusting 6 22.2
2019-Sep-21 04:05 284 2 gusting 4 22.2
2019-Sep-21 04:00 282 3 gusting 6 22.2
2019-Sep-21 03:55 304 3 gusting 5 22.2
2019-Sep-21 03:50 309 3 gusting 5 22.2
2019-Sep-21 03:45 304 2 gusting 4 22.2
2019-Sep-21 03:40 286 2 gusting 4 22.2
2019-Sep-21 03:35 286 2 gusting 3 22.8
2019-Sep-21 03:30 295 2 gusting 3 22.8
2019-Sep-21 03:25 332 1 gusting 2 22.8
2019-Sep-21 03:20 346 2 gusting 3 22.8
2019-Sep-21 03:15 352 2 gusting 4 22.8
2019-Sep-21 03:10 359 3 gusting 4 22.8
2019-Sep-21 03:05 001 2 gusting 4 22.8
2019-Sep-21 03:00 352 2 gusting 4 22.8
2019-Sep-21 02:55 005 1 gusting 2 22.8
2019-Sep-21 02:50 009 1 gusting 3 22.8
2019-Sep-21 02:45 003 1 gusting 4 22.8
2019-Sep-21 02:40 22.8
2019-Sep-21 02:35 358 3 gusting 6 22.8
2019-Sep-21 02:30 010 2 gusting 4 22.8
2019-Sep-21 02:25 358 3 gusting 6 22.8
2019-Sep-21 02:20 008 2 gusting 4 22.8
2019-Sep-21 02:15 007 3 gusting 6 22.2
2019-Sep-21 02:10 358 3 gusting 6 22.2
2019-Sep-21 02:05 338 0 gusting 3 22.2
2019-Sep-21 02:00 356 4 gusting 7 22.2
2019-Sep-21 01:55 357 5 gusting 9 22.2
2019-Sep-21 01:50 359 5 gusting 7 22.8
2019-Sep-21 01:45 008 4 gusting 7 22.8
2019-Sep-21 01:40 343 3 gusting 6 22.8
2019-Sep-21 01:35 006 3 gusting 6 22.8
2019-Sep-21 01:30 038 2 gusting 6 22.8
2019-Sep-21 01:25 022 2 gusting 3 22.8
2019-Sep-21 01:20 005 1 gusting 3 22.8
2019-Sep-21 01:15 324 2 gusting 4 22.8
2019-Sep-21 01:10 270 1 gusting 3 22.8
2019-Sep-21 01:05 268 1 gusting 3 22.8
2019-Sep-21 01:00 356 2 gusting 4 22.8
2019-Sep-21 00:55 006 2 gusting 6 22.8
2019-Sep-21 00:50 008 2 gusting 6 22.8
2019-Sep-21 00:45 357 2 gusting 4 22.8
2019-Sep-21 00:40 014 4 gusting 6 22.8
2019-Sep-21 00:35 001 5 gusting 7 22.8
2019-Sep-21 00:30 001 5 gusting 7 22.8
2019-Sep-21 00:25 360 2 gusting 6 22.8
2019-Sep-21 00:20 354 3 gusting 6 22.8
2019-Sep-21 00:15 326 2 gusting 4 22.8
2019-Sep-21 00:10 347 2 gusting 4 22.8
2019-Sep-21 00:05 028 1 gusting 2 22.8
2019-Sep-21 00:00 039 1 gusting 2 22.8
2019-Sep-20 23:55 039 0 gusting 2 22.8
2019-Sep-20 23:50 039 0 gusting 2 22.8
2019-Sep-20 23:45 040 1 gusting 2 22.8
2019-Sep-20 23:40 040 0 gusting 2 22.8
2019-Sep-20 23:35 040 0 gusting 2 22.8
2019-Sep-20 23:30 048 1 gusting 4 22.8
2019-Sep-20 23:25 054 4 gusting 6 22.8
2019-Sep-20 23:20 036 2 gusting 4 22.8
2019-Sep-20 23:15 047 2 gusting 4 22.8
2019-Sep-20 23:10 057 1 gusting 4 22.8
2019-Sep-20 23:05 043 2 gusting 3 22.8
2019-Sep-20 23:00 051 2 gusting 3 22.8
2019-Sep-20 22:55 049 2 gusting 5 22.8
2019-Sep-20 22:50 040 3 gusting 4 22.8
2019-Sep-20 22:45 037 1 gusting 4 22.8
2019-Sep-20 22:40 038 1 gusting 3 22.8
2019-Sep-20 22:35 044 1 gusting 2 22.8
2019-Sep-20 22:30 040 2 gusting 4 22.8
2019-Sep-20 22:25 037 2 gusting 5 22.8
2019-Sep-20 22:20 034 2 gusting 6 22.8
2019-Sep-20 22:15 049 3 gusting 7 22.8
2019-Sep-20 22:10 058 6 gusting 9 22.8
2019-Sep-20 22:05 055 4 gusting 8 22.8
2019-Sep-20 22:00 057 6 gusting 11 22.8
2019-Sep-20 21:50 052 7 gusting 14 22.8
2019-Sep-20 21:45 047 8 gusting 13 22.8
2019-Sep-20 21:40 050 8 gusting 13 22.8
2019-Sep-20 21:35 063 6 gusting 12 22.8
2019-Sep-20 21:30 062 6 gusting 10 22.8
2019-Sep-20 21:25 055 7 gusting 13 22.8
2019-Sep-20 21:20 075 6 gusting 10 22.8
2019-Sep-20 21:15 065 8 gusting 13 22.8
2019-Sep-20 21:10 067 7 gusting 13 22.8
2019-Sep-20 21:05 055 7 gusting 12 22.8
2019-Sep-20 21:00 052 7 gusting 13 23.3
2019-Sep-20 20:50 046 7 gusting 13 23.3
2019-Sep-20 20:45 058 7 gusting 12 22.8
2019-Sep-20 20:40 050 8 gusting 13 22.8
2019-Sep-20 20:35 060 6 gusting 9 22.8
2019-Sep-20 20:30 055 6 gusting 11 22.8
2019-Sep-20 20:25 054 6 gusting 10 22.8
2019-Sep-20 20:20 057 6 gusting 8 22.8
2019-Sep-20 20:15 054 6 gusting 10 22.8
2019-Sep-20 20:10 052 7 gusting 11 22.8
2019-Sep-20 20:05 052 8 gusting 11 22.8
2019-Sep-20 20:00 055 5 gusting 8 23.3
2019-Sep-20 19:55 053 3 gusting 4 23.3
2019-Sep-20 19:50 347 1 gusting 3 23.3
2019-Sep-20 19:45 306 1 gusting 3 23.3
2019-Sep-20 19:40 311 1 gusting 2 23.3
2019-Sep-20 19:35 341 2 gusting 3 23.3
2019-Sep-20 19:30 063 0 gusting 2 23.3
2019-Sep-20 19:25 063 0 gusting 1 23.3
2019-Sep-20 19:20 063 0 gusting 2 23.3
2019-Sep-20 19:15 053 1 gusting 3 23.3
2019-Sep-20 19:10 065 2 gusting 4 23.3
2019-Sep-20 19:05 066 3 gusting 6 23.3
2019-Sep-20 19:00 064 3 gusting 6 23.3
2019-Sep-20 18:55 066 5 gusting 8 23.3
2019-Sep-20 18:50 072 5 gusting 8 23.3
2019-Sep-20 18:45 057 3 gusting 7 23.3
2019-Sep-20 18:40 057 4 gusting 8 23.3
2019-Sep-20 18:35 051 6 gusting 10 23.3
2019-Sep-20 18:30 061 6 gusting 11 23.3
2019-Sep-20 18:25 072 7 gusting 11 23.3
2019-Sep-20 18:20 055 5 gusting 9 23.3
2019-Sep-20 18:15 060 6 gusting 11 23.3
2019-Sep-20 18:10 071 6 gusting 12 23.3
2019-Sep-20 18:05 068 6 gusting 10 23.3
2019-Sep-20 18:00 063 5 gusting 10 23.3
2019-Sep-20 17:55 075 4 gusting 10 23.3
2019-Sep-20 17:50 056 6 gusting 13 23.9
2019-Sep-20 17:45 066 6 gusting 9 23.9
2019-Sep-20 17:40 069 6 gusting 13 23.9
2019-Sep-20 17:35 067 7 gusting 12 23.9
2019-Sep-20 17:30 059 7 gusting 12 23.9
2019-Sep-20 17:25 059 7 gusting 14 23.9
2019-Sep-20 17:20 068 6 gusting 11 23.9
2019-Sep-20 17:15 074 9 gusting 13 23.9
2019-Sep-20 17:10 063 8 gusting 12 23.9
2019-Sep-20 17:05 064 8 gusting 12 23.9
2019-Sep-20 17:00 061 6 gusting 11 23.9
2019-Sep-20 16:55 073 7 gusting 12 23.9
2019-Sep-20 16:50 074 6 gusting 12 23.9
2019-Sep-20 16:40 073 7 gusting 13 23.9
2019-Sep-20 16:35 078 9 gusting 13 23.9
2019-Sep-20 16:30 079 9 gusting 15 23.9
2019-Sep-20 16:25 076 9 gusting 13 23.9
2019-Sep-20 16:20 076 12 gusting 14 24.4
2019-Sep-20 16:10 071 7 gusting 16 24.4
2019-Sep-20 16:05 080 7 gusting 11 23.9
2019-Sep-20 16:00 079 10 gusting 16 23.9
2019-Sep-20 15:50 061 11 gusting 17 24.4
2019-Sep-20 15:45 074 9 gusting 13 24.4
2019-Sep-20 15:40 058 11 gusting 18 24.4
2019-Sep-20 15:35 053 10 gusting 19 24.4
2019-Sep-20 15:30 075 9 gusting 15 24.4
2019-Sep-20 15:25 068 8 gusting 14 24.4
2019-Sep-20 15:20 068 11 gusting 18 24.4
2019-Sep-20 15:15 071 9 gusting 16 24.4
2019-Sep-20 15:10 076 11 gusting 15 24.4
2019-Sep-20 15:05 070 11 gusting 17 24.4
2019-Sep-20 15:00 073 11 gusting 16 24.4
2019-Sep-20 14:55 075 10 gusting 17 25.0
2019-Sep-20 14:50 069 9 gusting 14 25.0
2019-Sep-20 14:45 077 13 gusting 18 25.0
2019-Sep-20 14:40 076 11 gusting 16 25.0
2019-Sep-20 14:35 072 10 gusting 15 25.0
2019-Sep-20 14:30 060 9 gusting 15 25.0
2019-Sep-20 14:25 068 10 gusting 16 25.0
2019-Sep-20 14:20 053 8 gusting 15 25.0
2019-Sep-20 14:15 073 12 gusting 18 25.0
2019-Sep-20 14:10 076 13 gusting 18 25.0
2019-Sep-20 14:05 072 11 gusting 15 25.0
2019-Sep-20 14:00 075 10 gusting 16 25.0
2019-Sep-20 13:50 079 13 gusting 18 24.4
2019-Sep-20 13:45 077 13 gusting 19 25.0
2019-Sep-20 13:40 071 10 gusting 16 25.0
2019-Sep-20 13:35 076 13 gusting 19 25.0
2019-Sep-20 13:30 076 10 gusting 17 25.0
2019-Sep-20 13:25 079 12 gusting 17 25.0
2019-Sep-20 13:20 078 13 gusting 19 25.0
2019-Sep-20 13:15 082 12 gusting 15 24.4
2019-Sep-20 13:10 079 12 gusting 18 25.0
2019-Sep-20 13:05 077 12 gusting 18 25.0
2019-Sep-20 13:00 078 10 gusting 15 25.0
2019-Sep-20 12:50 078 12 gusting 16 25.0
2019-Sep-20 12:45 080 14 gusting 19 24.4
2019-Sep-20 12:40 078 11 gusting 16 25.0
2019-Sep-20 12:35 079 13 gusting 18 25.0
2019-Sep-20 12:30 077 13 gusting 17 25.0
2019-Sep-20 12:25 079 12 gusting 19 25.0
2019-Sep-20 12:20 081 13 gusting 19 24.4
2019-Sep-20 12:15 079 14 gusting 19 24.4
2019-Sep-20 12:10 077 13 gusting 19 24.4
2019-Sep-20 12:05 076 11 gusting 18 24.4
2019-Sep-20 12:00 082 12 gusting 17 24.4
2019-Sep-20 11:55 078 13 gusting 18 24.4
2019-Sep-20 11:50 080 13 gusting 17 24.4
2019-Sep-20 11:45 083 12 gusting 16 24.4
2019-Sep-20 11:40 081 13 gusting 18 24.4
2019-Sep-20 11:35 077 13 gusting 18 24.4
2019-Sep-20 11:30 079 13 gusting 18 24.4
2019-Sep-20 11:25 077 13 gusting 19 24.4
2019-Sep-20 11:20 082 13 gusting 19 24.4
2019-Sep-20 11:15 073 13 gusting 17 24.4
2019-Sep-20 11:10 078 13 gusting 19 24.4
2019-Sep-20 11:05 075 13 gusting 18 24.4
2019-Sep-20 11:00 078 13 gusting 19 24.4
2019-Sep-20 10:55 078 13 gusting 18 24.4
2019-Sep-20 10:50 072 10 gusting 19 24.4
2019-Sep-20 10:45 078 13 gusting 19 23.9
2019-Sep-20 10:40 076 15 gusting 19 23.9
2019-Sep-20 10:35 074 16 gusting 19 24.4
2019-Sep-20 10:30 084 14 gusting 20 24.4
2019-Sep-20 10:25 079 16 gusting 21 24.4
2019-Sep-20 10:20 079 14 gusting 19 24.4
2019-Sep-20 10:15 077 14 gusting 20 24.4
2019-Sep-20 10:10 079 15 gusting 19 24.4
2019-Sep-20 10:05 078 13 gusting 19 24.4
2019-Sep-20 10:00 079 13 gusting 18 24.4
2019-Sep-20 09:55 074 11 gusting 17 24.4
2019-Sep-20 09:50 076 14 gusting 19 24.4
2019-Sep-20 09:45 076 12 gusting 18 24.4
2019-Sep-20 09:40 080 13 gusting 19 24.4
2019-Sep-20 09:35 072 12 gusting 16 24.4
2019-Sep-20 09:30 075 13 gusting 19 24.4
2019-Sep-20 09:25 061 11 gusting 18 24.4
2019-Sep-20 09:20 063 11 gusting 15 24.4
2019-Sep-20 09:15 061 10 gusting 17 25.0
2019-Sep-20 09:10 056 10 gusting 17 25.0
2019-Sep-20 09:05 056 10 gusting 15 24.4
2019-Sep-20 09:00 064 10 gusting 16 24.4
2019-Sep-20 08:55 059 10 gusting 15 24.4
2019-Sep-20 08:50 055 10 gusting 17 24.4
2019-Sep-20 08:45 073 12 gusting 16 24.4
2019-Sep-20 08:40 059 12 gusting 18 24.4
2019-Sep-20 08:35 056 11 gusting 16 24.4
2019-Sep-20 08:30 070 9 gusting 16 24.4
2019-Sep-20 08:25 076 7 gusting 14 24.4
2019-Sep-20 08:20 054 10 gusting 15 24.4
2019-Sep-20 08:15 056 7 gusting 13 23.9
2019-Sep-20 08:10 051 6 gusting 10 23.9
2019-Sep-20 08:05 056 8 gusting 13 23.9
2019-Sep-20 08:00 049 6 gusting 12 23.9
2019-Sep-20 07:50 059 6 gusting 13 23.9
2019-Sep-20 07:45 043 7 gusting 11 23.9
2019-Sep-20 07:40 043 4 gusting 10 23.9
2019-Sep-20 07:35 030 4 gusting 9 23.9
2019-Sep-20 07:30 037 5 gusting 9 23.3
2019-Sep-20 07:25 040 3 gusting 10 23.3
2019-Sep-20 07:20 037 4 gusting 8 23.3
2019-Sep-20 07:10 036 4 gusting 8 23.3
2019-Sep-20 07:05 032 3 gusting 8 23.3
2019-Sep-20 07:00 015 2 gusting 7 22.8
2019-Sep-20 06:50 023 3 gusting 6 22.8
2019-Sep-20 06:45 007 4 gusting 7 22.8
2019-Sep-20 06:40 022 3 gusting 6 22.8
2019-Sep-20 06:35 019 1 gusting 4 22.2
2019-Sep-20 06:30 009 3 gusting 7 22.2
2019-Sep-20 06:25 010 4 gusting 7 22.2
2019-Sep-20 06:20 006 5 gusting 7 22.2
2019-Sep-20 06:15 012 4 gusting 8 22.2
2019-Sep-20 06:10 027 2 gusting 6 22.2
2019-Sep-20 06:05 019 4 gusting 8 22.2
2019-Sep-20 06:00 005 3 gusting 6 22.2
2019-Sep-20 05:50 004 4 gusting 7 22.2
2019-Sep-20 05:45 004 4 gusting 6 22.2
2019-Sep-20 05:40 017 2 gusting 4 22.2
2019-Sep-20 05:35 010 2 gusting 6 22.2
2019-Sep-20 05:30 003 2 gusting 6 22.2
2019-Sep-20 05:25 006 4 gusting 6 22.2
2019-Sep-20 05:20 002 4 gusting 6 22.2
2019-Sep-20 05:15 352 4 gusting 6 22.2
2019-Sep-20 05:10 359 4 gusting 6 22.2
2019-Sep-20 05:05 004 4 gusting 6 22.2
2019-Sep-20 05:00 354 2 gusting 4 22.2
2019-Sep-20 04:50 349 2 gusting 3 22.2
2019-Sep-20 04:45 355 1 gusting 2 22.2
2019-Sep-20 04:40 355 1 gusting 2 22.2
2019-Sep-20 04:35 355 1 gusting 2 22.2
2019-Sep-20 04:30 355 1 gusting 2 22.2
2019-Sep-20 04:25 355 2 gusting 2 22.2
2019-Sep-20 04:20 355 1 gusting 2 22.2
2019-Sep-20 04:15 355 1 gusting 2 22.2
2019-Sep-20 04:10 355 1 gusting 2 22.2
2019-Sep-20 04:05 355 1 gusting 1 22.2
2019-Sep-20 04:00 355 0 gusting 1 22.2
2019-Sep-20 03:55 355 0 gusting 1 22.2
2019-Sep-20 03:50 355 1 gusting 2 22.2
2019-Sep-20 03:45 355 0 gusting 2 22.2
2019-Sep-20 03:40 355 1 gusting 2 22.2
2019-Sep-20 03:35 355 1 gusting 2 22.2
2019-Sep-20 03:30 355 1 gusting 2 22.2
2019-Sep-20 03:25 349 1 gusting 3 22.2
2019-Sep-20 03:20 355 2 gusting 3 22.2
2019-Sep-20 03:15 003 2 gusting 4 22.2
2019-Sep-20 03:10 004 2 gusting 4 22.2
2019-Sep-20 03:05 005 2 gusting 3 22.2
2019-Sep-20 03:00 003 2 gusting 4 22.2
2019-Sep-20 02:55 358 2 gusting 4 22.2
2019-Sep-20 02:50 356 2 gusting 4 22.2
2019-Sep-20 02:45 359 3 gusting 6 22.2
2019-Sep-20 02:40 346 3 gusting 4 22.2
2019-Sep-20 02:35 345 3 gusting 4 21.7
2019-Sep-20 02:30 352 2 gusting 3 21.7
2019-Sep-20 02:25 358 2 gusting 3 21.7
2019-Sep-20 02:20 358 2 gusting 6 21.7
2019-Sep-20 02:15 359 3 gusting 6 21.7
2019-Sep-20 02:10 004 4 gusting 6 21.7
2019-Sep-20 02:05 001 3 gusting 6 21.7
2019-Sep-20 02:00 357 3 gusting 6 21.7
2019-Sep-20 01:55 002 3 gusting 6 21.7
2019-Sep-20 01:50 004 3 gusting 6 21.7
2019-Sep-20 01:45 001 3 gusting 6 21.7
2019-Sep-20 01:40 004 3 gusting 6 21.7
2019-Sep-20 01:35 001 3 gusting 4 21.7
2019-Sep-20 01:30 357 2 gusting 4 22.2
2019-Sep-20 01:25 003 3 gusting 4 22.2
2019-Sep-20 01:20 003 2 gusting 6 22.2
2019-Sep-20 01:15 001 3 gusting 6 22.2
2019-Sep-20 01:10 22.2
2019-Sep-20 01:05 005 2 gusting 4 22.2
2019-Sep-20 01:00 007 2 gusting 6 22.2
2019-Sep-20 00:50 038 1 gusting 3 22.2
2019-Sep-20 00:45 018 1 gusting 3 22.2
2019-Sep-20 00:40 012 2 gusting 4 22.2
2019-Sep-20 00:35 014 2 gusting 4 22.2
2019-Sep-20 00:30 024 1 gusting 4 22.2
2019-Sep-20 00:25 027 2 gusting 5 22.2
2019-Sep-20 00:20 012 2 gusting 4 22.2
2019-Sep-20 00:15 010 2 gusting 6 22.2
2019-Sep-20 00:10 010 2 gusting 4 22.2
2019-Sep-20 00:05 360 2 gusting 6 22.2
2019-Sep-20 00:00 003 2 gusting 4 22.2
2019-Sep-19 23:50 006 2 gusting 4 22.2
2019-Sep-19 23:45 002 1 gusting 3 22.8
2019-Sep-19 23:40 018 1 gusting 4 22.8
2019-Sep-19 23:35 037 0 gusting 3 22.8
2019-Sep-19 23:30 015 1 gusting 2 22.8
2019-Sep-19 23:25 004 1 gusting 3 22.8
2019-Sep-19 23:20 009 1 gusting 3 22.8
2019-Sep-19 23:15 015 1 gusting 3 22.8
2019-Sep-19 23:10 041 0 gusting 2 22.8
2019-Sep-19 23:05 041 3 gusting 6 22.8
2019-Sep-19 23:00 035 3 gusting 5 22.8
2019-Sep-19 22:55 056 3 gusting 6 22.8
2019-Sep-19 22:50 059 3 gusting 6 22.8
2019-Sep-19 22:45 042 2 gusting 4 22.8
2019-Sep-19 22:40 047 2 gusting 3 22.8
2019-Sep-19 22:35 049 3 gusting 6 22.8
2019-Sep-19 22:30 042 2 gusting 4 22.8
2019-Sep-19 22:25 047 2 gusting 3 22.8
2019-Sep-19 22:20 059 2 gusting 5 22.8
2019-Sep-19 22:15 056 3 gusting 4 22.8
2019-Sep-19 22:10 059 2 gusting 4 22.8
2019-Sep-19 22:05 063 2 gusting 5 22.8
2019-Sep-19 22:00 048 3 gusting 5 22.8
2019-Sep-19 21:55 039 1 gusting 3 23.3
2019-Sep-19 21:50 039 1 gusting 3 23.3
2019-Sep-19 21:45 039 0 gusting 2 23.3
2019-Sep-19 21:40 039 1 gusting 2 23.3
2019-Sep-19 21:35 048 1 gusting 3 23.3
2019-Sep-19 21:30 056 0 gusting 3 23.3
2019-Sep-19 21:25 056 0 gusting 2 23.3
2019-Sep-19 21:20 056 0 gusting 2 23.3
2019-Sep-19 21:15 056 0 gusting 2 22.8
2019-Sep-19 21:10 056 0 gusting 3 22.8
2019-Sep-19 21:05 057 1 gusting 2 22.8
2019-Sep-19 21:00 037 2 gusting 4 22.8
2019-Sep-19 20:55 037 0 gusting 3 22.8
2019-Sep-19 20:50 037 1 gusting 2 22.8
2019-Sep-19 20:45 014 1 gusting 3 22.8
2019-Sep-19 20:40 005 1 gusting 3 22.8
2019-Sep-19 20:35 031 0 gusting 3 22.8
2019-Sep-19 20:30 039 1 gusting 3 22.8
2019-Sep-19 20:25 039 1 gusting 2 22.8
2019-Sep-19 20:20 043 2 gusting 4 22.8
2019-Sep-19 20:15 039 2 gusting 4 22.8
2019-Sep-19 20:10 040 3 gusting 6 22.8
2019-Sep-19 20:05 044 1 gusting 3 22.8
2019-Sep-19 20:00 036 2 gusting 3 22.8
2019-Sep-19 19:55 044 2 gusting 3 22.8
2019-Sep-19 19:50 044 1 gusting 3 22.8
2019-Sep-19 19:45 040 2 gusting 4 22.8
2019-Sep-19 19:40 043 2 gusting 3 22.8
2019-Sep-19 19:35 049 2 gusting 3 22.8
2019-Sep-19 19:30 056 2 gusting 4 22.8
2019-Sep-19 19:25 058 3 gusting 5 22.8
2019-Sep-19 19:20 066 2 gusting 4 22.8
2019-Sep-19 19:15 059 1 gusting 4 22.8
2019-Sep-19 19:10 079 2 gusting 4 22.8
2019-Sep-19 19:05 073 1 gusting 3 22.8
2019-Sep-19 19:00 078 2 gusting 5 22.8
2019-Sep-19 18:55 078 3 gusting 5 22.8
2019-Sep-19 18:50 077 5 gusting 6 22.8
2019-Sep-19 18:45 078 3 gusting 6 23.3
2019-Sep-19 18:40 058 2 gusting 4 23.3
2019-Sep-19 18:35 063 1 gusting 4 23.3
2019-Sep-19 18:30 073 2 gusting 6 23.3
2019-Sep-19 18:25 080 3 gusting 6 23.3
2019-Sep-19 18:20 080 3 gusting 6 23.3
2019-Sep-19 18:15 077 5 gusting 6 23.3
2019-Sep-19 18:10 079 6 gusting 7 23.3
2019-Sep-19 18:05 078 6 gusting 7 23.3
2019-Sep-19 18:00 080 6 gusting 7 23.3
2019-Sep-19 17:55 081 5 gusting 7 23.9
2019-Sep-19 17:50 080 6 gusting 7 23.9
2019-Sep-19 17:45 079 6 gusting 8 23.9
2019-Sep-19 17:40 081 6 gusting 9 23.9
2019-Sep-19 17:35 083 6 gusting 8 23.9
2019-Sep-19 17:30 078 6 gusting 9 23.9
2019-Sep-19 17:25 082 6 gusting 8 23.9
2019-Sep-19 17:20 080 6 gusting 9 24.4
2019-Sep-19 17:15 083 6 gusting 9 24.4
2019-Sep-19 17:10 081 7 gusting 10 24.4
2019-Sep-19 17:05 080 6 gusting 9 24.4
2019-Sep-19 17:00 078 6 gusting 9 24.4